Estaciones cercanas a Meteocoruna.es

 

LECO - La Coruna/Alvedro, Espana
Distancia desde EA1HNP Meteo: NNE 12km
Actualización: 24/09/2022 18:30
Poco nuboso
Poco nuboso
 Viento del N
Viento: N 15 km/h
Temperatura: 17°C
Rocío: 12°C
Humedad: 73%
Barómetro: 1020 hPa
Nubes: Poco nuboso
Visibilidad: 10 km
Detalle de nubes: Poco nuboso 914 m
2022/09/24 16:30 LECO 241630Z 36008KT 300V050 9999 FEW030 17/12 Q1020 NOSIG
LEST - Santiago/Labacolla, Espana
Distancia desde EA1HNP Meteo: S 32km
Actualización: 24/09/2022 18:30
Poco nuboso
Poco nuboso
 Viento del N
Viento: N 26 km/h
Temperatura: 15°C
Rocío: 10°C
Humedad: 72%
Barómetro: 1020 hPa
Nubes: Poco nuboso
Visibilidad: 10 km
Detalle de nubes: Poco nuboso 701 m
2022/09/24 16:30 LEST 241630Z 36014KT 330V030 9999 FEW023 15/10 Q1020 NOSIG